createdAt,value
2018-07-11T00:01:59.008Z,17.10
2018-07-11T00:04:33.879Z,17.10
2018-07-11T00:07:08.752Z,17.10
2018-07-11T00:12:18.905Z,17.10
2018-07-11T00:14:53.746Z,17.10
2018-07-11T00:17:28.752Z,17.00
2018-07-11T00:20:03.550Z,16.90
2018-07-11T00:22:38.473Z,16.90
2018-07-11T00:25:13.489Z,16.90
2018-07-11T00:27:48.400Z,16.90
2018-07-11T00:32:57.659Z,17.00
2018-07-11T00:35:32.529Z,17.00
2018-07-11T00:38:07.427Z,17.00
2018-07-11T00:40:43.344Z,17.10
2018-07-11T00:43:18.251Z,17.20
2018-07-11T00:45:53.705Z,17.30
2018-07-11T00:48:28.555Z,17.30
2018-07-11T00:51:04.065Z,17.30
2018-07-11T00:53:38.945Z,17.40
2018-07-11T00:59:10.376Z,17.50
2018-07-11T01:01:45.281Z,17.50
2018-07-11T01:04:20.191Z,17.60
2018-07-11T01:06:55.070Z,17.60
2018-07-11T01:09:31.219Z,17.60
2018-07-11T01:12:07.089Z,17.70
2018-07-11T01:14:41.927Z,17.60
2018-07-11T01:18:20.423Z,17.60
2018-07-11T01:20:56.242Z,17.60
2018-07-11T01:23:31.491Z,17.50
2018-07-11T01:26:13.812Z,17.50
2018-07-11T01:28:48.746Z,17.40
2018-07-11T01:31:25.100Z,17.30
2018-07-11T01:34:00.332Z,17.30
2018-07-11T01:36:35.178Z,17.30
2018-07-11T01:39:09.962Z,17.30
2018-07-11T01:41:44.799Z,17.30
2018-07-11T01:44:19.560Z,17.30
2018-07-11T01:46:55.400Z,17.20
2018-07-11T01:49:30.261Z,17.20
2018-07-11T01:52:16.025Z,17.10
2018-07-11T01:54:51.843Z,17.10
2018-07-11T01:57:26.708Z,17.10
2018-07-11T02:00:02.572Z,17.10
2018-07-11T02:02:37.437Z,17.20
2018-07-11T02:05:13.303Z,17.20
2018-07-11T02:07:48.179Z,17.20
2018-07-11T02:10:23.142Z,17.20
2018-07-11T02:12:59.752Z,17.20
2018-07-11T02:15:34.657Z,17.10
2018-07-11T02:23:18.227Z,17.10
2018-07-11T02:28:27.436Z,16.90
2018-07-11T02:31:02.421Z,16.90
2018-07-11T02:33:37.300Z,16.90
2018-07-11T02:36:13.107Z,17.00
2018-07-11T02:38:48.989Z,17.00
2018-07-11T02:41:23.802Z,17.00
2018-07-11T02:43:58.748Z,17.00
2018-07-11T02:46:38.815Z,17.00
2018-07-11T02:49:13.640Z,17.10
2018-07-11T02:51:48.771Z,17.10
2018-07-11T02:54:23.626Z,17.10
2018-07-11T02:59:34.061Z,17.20
2018-07-11T03:02:16.419Z,17.30
2018-07-11T03:04:58.082Z,17.30
2018-07-11T03:07:34.080Z,17.40
2018-07-11T03:10:09.929Z,17.40
2018-07-11T03:12:44.776Z,17.50
2018-07-11T03:15:19.568Z,17.50
2018-07-11T03:17:55.436Z,17.60
2018-07-11T03:20:30.320Z,17.60
2018-07-11T03:23:05.604Z,17.60
2018-07-11T03:25:40.534Z,17.60
2018-07-11T03:28:15.596Z,17.60
2018-07-11T03:30:50.488Z,17.70
2018-07-11T03:33:25.279Z,17.70
2018-07-11T03:36:01.068Z,17.80
2018-07-11T03:38:35.907Z,17.70
2018-07-11T03:41:10.819Z,17.80
2018-07-11T03:43:45.924Z,17.70
2018-07-11T03:46:20.688Z,17.70
2018-07-11T03:48:55.491Z,17.70
2018-07-11T03:54:04.783Z,17.70
2018-07-11T03:56:46.464Z,17.70
2018-07-11T03:59:21.334Z,17.60
2018-07-11T04:01:57.172Z,17.70
2018-07-11T04:04:31.985Z,17.60
2018-07-11T04:07:06.821Z,17.50
2018-07-11T04:09:42.697Z,17.50
2018-07-11T04:12:18.463Z,17.50
2018-07-11T04:17:28.508Z,17.40
2018-07-11T04:20:03.374Z,17.40
2018-07-11T04:22:38.226Z,17.30
2018-07-11T04:25:13.426Z,17.30
2018-07-11T04:27:48.566Z,17.20
2018-07-11T04:32:57.911Z,17.20
2018-07-11T04:38:07.104Z,17.10
2018-07-11T04:40:42.022Z,17.00
2018-07-11T04:43:17.154Z,17.00
2018-07-11T04:45:52.253Z,17.00
2018-07-11T04:48:27.216Z,17.00
2018-07-11T04:51:02.125Z,17.00
2018-07-11T04:53:37.031Z,17.00
2018-07-11T04:56:11.909Z,17.00
2018-07-11T04:58:46.816Z,17.00
2018-07-11T05:01:21.775Z,17.00
2018-07-11T05:03:56.700Z,17.00
2018-07-11T05:06:31.492Z,17.00
2018-07-11T05:09:08.567Z,17.00
2018-07-11T05:11:49.345Z,17.00
2018-07-11T05:14:24.270Z,17.00
2018-07-11T05:19:33.478Z,16.90
2018-07-11T05:22:08.280Z,17.00
2018-07-11T05:24:43.140Z,17.00
2018-07-11T05:27:17.932Z,17.00
2018-07-11T05:29:52.765Z,17.00
2018-07-11T05:32:27.909Z,17.00
2018-07-11T05:35:19.684Z,17.00
2018-07-11T05:38:05.729Z,17.00
2018-07-11T05:40:44.835Z,17.00
2018-07-11T05:43:22.615Z,17.00
2018-07-11T05:45:59.932Z,17.00
2018-07-11T05:48:35.653Z,17.00
2018-07-11T05:53:47.628Z,17.00
2018-07-11T05:56:24.674Z,17.00
2018-07-11T05:59:01.812Z,17.00
2018-07-11T06:01:37.261Z,16.90
2018-07-11T06:04:12.616Z,16.90
2018-07-11T06:06:58.033Z,16.90
2018-07-11T06:09:32.872Z,16.90
2018-07-11T06:12:09.035Z,16.90
2018-07-11T06:14:43.868Z,17.00
2018-07-11T06:17:19.900Z,16.90
2018-07-11T06:19:55.751Z,16.60
2018-07-11T06:22:30.527Z,17.00
2018-07-11T06:25:05.394Z,17.00
2018-07-11T06:27:41.240Z,17.00
2018-07-11T06:30:16.032Z,16.90
2018-07-11T06:32:50.849Z,17.00
2018-07-11T06:35:25.673Z,17.00
2018-07-11T06:38:01.465Z,17.00
2018-07-11T06:40:36.352Z,17.00
2018-07-11T06:43:11.148Z,17.00
2018-07-11T06:45:46.967Z,17.00
2018-07-11T06:48:21.747Z,17.00
2018-07-11T06:50:56.672Z,17.00
2018-07-11T06:53:31.477Z,17.00
2018-07-11T06:56:06.305Z,17.00
2018-07-11T06:58:41.176Z,17.10
2018-07-11T07:01:16.134Z,17.10
2018-07-11T07:03:50.942Z,17.00
2018-07-11T07:06:25.716Z,17.00
2018-07-11T07:09:00.692Z,17.10
2018-07-11T07:11:35.532Z,17.10
2018-07-11T07:14:10.315Z,17.10
2018-07-11T07:16:45.113Z,17.10
2018-07-11T07:21:55.525Z,17.10
2018-07-11T07:24:31.344Z,17.10
2018-07-11T07:27:06.183Z,17.10
2018-07-11T07:29:40.980Z,17.10
2018-07-11T07:32:15.752Z,17.10
2018-07-11T07:34:50.693Z,17.10
2018-07-11T07:37:26.508Z,17.10
2018-07-11T07:40:01.284Z,17.10
2018-07-11T07:42:36.064Z,17.20
2018-07-11T07:45:10.968Z,17.20
2018-07-11T07:50:21.084Z,17.30
2018-07-11T07:52:56.048Z,17.30
2018-07-11T07:55:31.940Z,17.40
2018-07-11T07:58:07.980Z,17.50
2018-07-11T08:05:52.392Z,17.60
2018-07-11T08:08:28.161Z,17.60
2018-07-11T08:11:02.992Z,17.70
2018-07-11T08:13:37.825Z,17.70
2018-07-11T08:16:13.629Z,17.80
2018-07-11T08:21:23.763Z,17.90
2018-07-11T08:24:09.663Z,18.00
2018-07-11T08:26:55.411Z,18.10
2018-07-11T08:29:41.253Z,18.30
2018-07-11T08:32:34.222Z,18.40
2018-07-11T08:36:27.911Z,18.30
2018-07-11T08:39:13.738Z,18.30
2018-07-11T08:44:08.150Z,18.30
2018-07-11T08:51:04.072Z,18.20
2018-07-11T08:53:50.665Z,18.00
2018-07-11T08:56:36.685Z,17.60
2018-07-11T08:59:18.073Z,17.50
2018-07-11T09:02:06.856Z,17.50
2018-07-11T09:09:35.224Z,17.50
2018-07-11T09:12:23.752Z,17.50
2018-07-11T09:17:20.418Z,17.60
2018-07-11T09:21:05.068Z,17.60
2018-07-11T09:24:47.060Z,17.70
2018-07-11T09:27:21.905Z,17.70
2018-07-11T09:29:57.016Z,17.70
2018-07-11T09:32:31.830Z,17.70
2018-07-11T09:35:07.749Z,17.80
2018-07-11T09:37:42.576Z,17.90
2018-07-11T09:40:17.409Z,18.00
2018-07-11T09:42:52.300Z,18.00
2018-07-11T09:45:28.058Z,18.10
2018-07-11T09:48:02.857Z,18.20
2018-07-11T09:50:37.629Z,18.20
2018-07-11T09:53:12.680Z,18.20
2018-07-11T09:55:47.542Z,18.20
2018-07-11T09:58:22.381Z,18.20
2018-07-11T10:01:02.451Z,18.30
2018-07-11T10:03:37.271Z,18.20
2018-07-11T10:06:12.168Z,18.20
2018-07-11T10:08:46.975Z,18.30
2018-07-11T10:11:21.768Z,18.30
2018-07-11T10:13:56.536Z,18.40
2018-07-11T10:16:31.616Z,18.50
2018-07-11T10:19:06.709Z,18.70
2018-07-11T10:21:42.650Z,18.80
2018-07-11T10:24:17.687Z,19.00
2018-07-11T10:26:52.506Z,19.10
2018-07-11T10:29:27.213Z,19.00
2018-07-11T10:32:02.028Z,18.90
2018-07-11T10:34:36.835Z,18.80
2018-07-11T10:37:11.619Z,18.80
2018-07-11T10:39:46.348Z,18.90
2018-07-11T10:42:21.213Z,19.20
2018-07-11T10:44:56.075Z,19.40
2018-07-11T10:50:05.263Z,19.70
2018-07-11T10:52:40.085Z,19.60
2018-07-11T10:55:15.823Z,19.30
2018-07-11T10:57:50.976Z,19.10
2018-07-11T11:00:36.657Z,19.20
2018-07-11T11:08:13.072Z,19.20
2018-07-11T11:10:47.804Z,19.20
2018-07-11T11:13:23.264Z,19.10
2018-07-11T11:15:58.188Z,18.90
2018-07-11T11:18:33.047Z,18.60
2018-07-11T11:21:08.881Z,18.60
2018-07-11T11:23:43.730Z,18.50
2018-07-11T11:26:18.453Z,18.50
2018-07-11T11:28:54.260Z,18.60
2018-07-11T11:31:29.028Z,18.70
2018-07-11T11:34:03.868Z,18.80
2018-07-11T11:36:38.618Z,18.80
2018-07-11T11:39:13.460Z,18.80
2018-07-11T11:41:49.318Z,18.70
2018-07-11T11:44:24.256Z,18.80
2018-07-11T11:47:02.594Z,18.80
2018-07-11T11:49:37.376Z,18.90
2018-07-11T11:52:12.444Z,18.80
2018-07-11T11:54:47.163Z,18.80
2018-07-11T11:57:22.203Z,18.90
2018-07-11T11:59:56.956Z,19.00
2018-07-11T12:02:32.728Z,18.80
2018-07-11T12:05:07.476Z,18.80
2018-07-11T12:07:42.634Z,18.70
2018-07-11T12:10:17.736Z,18.60
2018-07-11T12:15:27.881Z,18.40
2018-07-11T12:18:02.700Z,18.50
2018-07-11T12:20:38.618Z,18.60
2018-07-11T12:23:14.458Z,18.80
2018-07-11T12:26:05.799Z,18.90
2018-07-11T12:28:41.646Z,19.00
2018-07-11T12:31:16.478Z,19.30
2018-07-11T12:33:51.358Z,19.30
2018-07-11T12:36:27.130Z,19.40
2018-07-11T12:39:01.974Z,19.50
2018-07-11T12:41:37.219Z,19.80
2018-07-11T12:44:12.996Z,19.90
2018-07-11T12:46:47.794Z,20.10
2018-07-11T12:49:22.654Z,20.20
2018-07-11T12:51:58.440Z,20.10
2018-07-11T12:54:33.412Z,19.90
2018-07-11T12:57:08.726Z,19.80
2018-07-11T12:59:43.526Z,19.50
2018-07-11T13:02:18.408Z,19.30
2018-07-11T13:04:53.637Z,19.30
2018-07-11T13:07:28.411Z,19.10
2018-07-11T13:10:04.416Z,18.90
2018-07-11T13:12:39.143Z,18.80
2018-07-11T13:15:13.899Z,18.60
2018-07-11T13:17:49.632Z,18.50
2018-07-11T13:20:24.452Z,18.50
2018-07-11T13:22:59.192Z,18.50
2018-07-11T13:25:34.061Z,18.50
2018-07-11T13:28:09.823Z,18.40
2018-07-11T13:35:54.569Z,18.70
2018-07-11T13:38:29.342Z,18.90
2018-07-11T13:41:05.174Z,19.20
2018-07-11T13:43:39.971Z,19.50
2018-07-11T13:46:15.717Z,19.80
2018-07-11T13:48:51.683Z,20.10
2018-07-11T13:51:26.448Z,20.40
2018-07-11T13:54:01.300Z,20.50
2018-07-11T13:56:37.129Z,20.60
2018-07-11T13:59:11.891Z,20.60
2018-07-11T14:01:46.635Z,20.70
2018-07-11T14:04:21.448Z,20.70
2018-07-11T14:06:56.251Z,20.80
2018-07-11T14:14:40.176Z,21.20
2018-07-11T14:17:14.901Z,21.20
2018-07-11T14:19:49.729Z,21.20
2018-07-11T14:22:24.569Z,21.10
2018-07-11T14:24:59.437Z,21.00
2018-07-11T14:32:55.850Z,20.70
2018-07-11T14:35:30.661Z,20.70
2018-07-11T14:38:05.402Z,20.60
2018-07-11T14:40:40.179Z,20.60
2018-07-11T14:43:14.932Z,20.60
2018-07-11T14:45:49.786Z,20.60
2018-07-11T14:48:24.783Z,20.60
2018-07-11T14:51:01.355Z,20.60
2018-07-11T14:53:36.465Z,20.50
2018-07-11T14:58:46.577Z,20.40
2018-07-11T15:01:23.042Z,20.30
2018-07-11T15:03:57.805Z,20.20
2018-07-11T15:06:32.607Z,20.10
2018-07-11T15:09:07.661Z,20.10
2018-07-11T15:14:16.737Z,19.90
2018-07-11T15:19:26.368Z,19.90
2018-07-11T15:22:01.127Z,19.90
2018-07-11T15:24:36.028Z,19.90
2018-07-11T15:27:11.796Z,19.90
2018-07-11T15:29:47.647Z,19.90
2018-07-11T15:32:22.544Z,19.90
2018-07-11T15:34:57.497Z,19.80
2018-07-11T15:37:32.340Z,19.80
2018-07-11T15:40:07.517Z,19.90
2018-07-11T15:42:44.512Z,19.90
2018-07-11T15:45:19.421Z,19.90
2018-07-11T15:47:54.416Z,19.90
2018-07-11T15:53:03.623Z,20.10
2018-07-11T15:55:38.452Z,20.10
2018-07-11T15:58:15.320Z,20.20
2018-07-11T16:00:50.201Z,20.20
2018-07-11T16:03:26.705Z,20.20
2018-07-11T16:06:01.560Z,20.30
2018-07-11T16:08:36.426Z,20.20
2018-07-11T16:11:11.361Z,20.20
2018-07-11T16:13:47.108Z,20.00
2018-07-11T16:16:21.918Z,20.10
2018-07-11T16:18:56.738Z,20.00
2018-07-11T16:24:05.883Z,19.80
2018-07-11T16:29:15.036Z,19.80
2018-07-11T16:31:49.836Z,19.80
2018-07-11T16:34:24.644Z,19.90
2018-07-11T16:36:59.466Z,19.80
2018-07-11T16:39:34.413Z,19.80
2018-07-11T16:42:09.402Z,19.80
2018-07-11T16:44:44.679Z,19.70
2018-07-11T16:47:19.515Z,19.70
2018-07-11T16:49:54.361Z,19.60
2018-07-11T16:52:29.502Z,19.50
2018-07-11T16:55:05.317Z,19.50
2018-07-11T16:57:46.929Z,19.50
2018-07-11T17:00:28.796Z,19.40
2018-07-11T17:03:10.297Z,19.30
2018-07-11T17:05:53.732Z,19.20
2018-07-11T17:08:32.128Z,19.20
2018-07-11T17:11:21.392Z,19.10
2018-07-11T17:13:59.996Z,19.00
2018-07-11T17:16:42.553Z,18.90
2018-07-11T17:22:00.776Z,18.80
2018-07-11T17:24:43.995Z,18.80
2018-07-11T17:27:22.672Z,18.70
2018-07-11T17:30:02.330Z,18.70
2018-07-11T17:32:37.184Z,18.60
2018-07-11T17:35:12.020Z,18.60
2018-07-11T17:37:47.003Z,18.60
2018-07-11T17:40:25.212Z,18.50
2018-07-11T17:43:00.065Z,18.50
2018-07-11T17:45:37.004Z,18.50
2018-07-11T17:51:03.372Z,18.50
2018-07-11T17:56:14.608Z,18.50
2018-07-11T17:58:56.185Z,18.50
2018-07-11T18:01:43.595Z,18.50
2018-07-11T18:04:32.342Z,18.50
2018-07-11T18:07:13.812Z,18.50
2018-07-11T18:09:59.992Z,18.50
2018-07-11T18:15:36.707Z,18.50
2018-07-11T18:18:32.963Z,18.50
2018-07-11T18:21:17.518Z,18.50
2018-07-11T18:26:04.445Z,18.50
2018-07-11T18:28:47.264Z,18.50
2018-07-11T18:33:33.084Z,18.50
2018-07-11T18:36:17.379Z,18.50
2018-07-11T18:39:13.025Z,18.40
2018-07-11T18:44:08.480Z,18.30
2018-07-11T18:46:56.940Z,18.30
2018-07-11T18:49:39.320Z,18.20
2018-07-11T18:52:21.760Z,18.10
2018-07-11T18:57:46.879Z,18.00
2018-07-11T19:00:29.173Z,17.90
2018-07-11T19:08:52.961Z,17.80
2018-07-11T19:11:41.376Z,17.70
2018-07-11T19:14:27.116Z,17.70
2018-07-11T19:17:10.572Z,17.60
2018-07-11T19:20:54.514Z,17.60
2018-07-11T19:23:39.977Z,17.60
2018-07-11T19:29:10.244Z,17.50
2018-07-11T19:31:56.256Z,17.50
2018-07-11T19:34:49.293Z,17.50
2018-07-11T19:38:07.917Z,17.40
2018-07-11T19:40:50.999Z,17.40
2018-07-11T19:46:12.108Z,17.40
2018-07-11T19:49:02.370Z,17.40
2018-07-11T19:52:45.828Z,17.30
2018-07-11T19:56:04.348Z,17.30
2018-07-11T20:01:14.452Z,17.30
2018-07-11T20:03:49.424Z,17.30
2018-07-11T20:06:24.252Z,17.30
2018-07-11T20:08:59.109Z,17.30
2018-07-11T20:11:34.001Z,17.30
2018-07-11T20:14:09.808Z,17.30
2018-07-11T20:16:44.648Z,17.30
2018-07-11T20:19:19.590Z,17.30
2018-07-11T20:21:54.452Z,17.40
2018-07-11T20:27:03.542Z,17.30
2018-07-11T20:29:38.351Z,17.40
2018-07-11T20:32:13.243Z,17.40
2018-07-11T20:34:49.048Z,17.40
2018-07-11T20:37:24.939Z,17.30
2018-07-11T20:39:59.800Z,17.30
2018-07-11T20:42:34.667Z,17.40
2018-07-11T20:45:09.472Z,17.40
2018-07-11T20:47:44.340Z,17.50
2018-07-11T20:50:33.195Z,17.50
2018-07-11T20:55:55.676Z,17.50
2018-07-11T20:58:45.185Z,17.50
2018-07-11T21:01:32.032Z,17.60
2018-07-11T21:04:20.739Z,17.60
2018-07-11T21:07:22.235Z,17.60
2018-07-11T21:13:09.289Z,17.60
2018-07-11T21:15:55.521Z,17.60
2018-07-11T21:18:43.711Z,17.60
2018-07-11T21:21:18.535Z,17.60
2018-07-11T21:24:07.306Z,17.60
2018-07-11T21:29:49.045Z,17.60
2018-07-11T21:32:31.079Z,17.50
2018-07-11T21:35:06.935Z,17.60
2018-07-11T21:37:41.771Z,17.50
2018-07-11T21:40:16.624Z,17.50
2018-07-11T21:42:51.351Z,17.50
2018-07-11T21:45:26.212Z,17.50
2018-07-11T21:48:00.987Z,17.50
2018-07-11T21:50:35.721Z,17.60
2018-07-11T21:53:11.519Z,17.60
2018-07-11T21:55:46.295Z,17.60
2018-07-11T21:58:21.143Z,17.60
2018-07-11T22:01:02.181Z,17.60
2018-07-11T22:03:36.972Z,17.60
2018-07-11T22:06:12.764Z,17.60
2018-07-11T22:08:47.516Z,17.70
2018-07-11T22:11:23.308Z,17.70
2018-07-11T22:13:58.460Z,17.70
2018-07-11T22:16:33.257Z,17.70
2018-07-11T22:19:09.016Z,17.70
2018-07-11T22:24:15.816Z,17.70
2018-07-11T22:26:49.053Z,17.70
2018-07-11T22:29:24.361Z,17.70
2018-07-11T22:31:57.602Z,17.70
2018-07-11T22:34:30.876Z,17.70
2018-07-11T22:37:04.117Z,17.70
2018-07-11T22:39:37.400Z,17.70
2018-07-11T22:42:10.667Z,17.70
2018-07-11T22:44:43.944Z,17.60
2018-07-11T22:47:17.389Z,17.70
2018-07-11T22:49:55.824Z,17.60
2018-07-11T22:52:31.335Z,17.60
2018-07-11T22:55:04.764Z,17.60
2018-07-11T22:57:38.064Z,17.60
2018-07-11T23:00:11.331Z,17.60
2018-07-11T23:02:44.633Z,17.60
2018-07-11T23:05:17.883Z,17.60
2018-07-11T23:10:24.740Z,17.60
2018-07-11T23:12:58.054Z,17.60
2018-07-11T23:15:31.321Z,17.60
2018-07-11T23:18:04.616Z,17.70
2018-07-11T23:20:37.867Z,17.70
2018-07-11T23:23:12.277Z,17.70
2018-07-11T23:25:47.230Z,17.60
2018-07-11T23:28:20.543Z,17.70
2018-07-11T23:30:53.820Z,17.70
2018-07-11T23:33:27.096Z,17.70
2018-07-11T23:36:00.411Z,17.70
2018-07-11T23:38:33.749Z,17.70
2018-07-11T23:41:07.221Z,17.70
2018-07-11T23:43:41.553Z,17.60
2018-07-11T23:46:14.795Z,17.70
2018-07-11T23:48:48.093Z,17.70
2018-07-11T23:51:21.342Z,17.80
2018-07-11T23:53:54.620Z,17.80
2018-07-11T23:56:28.860Z,17.80
2018-07-11T23:59:02.187Z,17.80
